Time;durP1;ratioP1;P1;durP2;ratioP2;P2;SDS_P1;SDS_P2;PMS_P1;PMS_P2;Temp;Humidity;BMP_temperature;BMP_pressure;BME280_temperature;BME280_humidity;BME280_pressure;Samples;Min_cycle;Max_cycle;Signal;HPM_P1;HPM_P2
2021/04/25 00:01:01;;;;;;;96.30;38.23;;;;;;;4.76;69.19;99284.70;2161149;82;21114;-74
2021/04/25 00:04:02;;;;;;;81.50;34.88;;;;;;;4.76;69.00;99287.31;2161069;82;21277;-75
2021/04/25 00:07:03;;;;;;;95.05;39.05;;;;;;;4.73;68.95;99280.45;2161081;82;21568;-74
2021/04/25 00:10:04;;;;;;;71.07;29.52;;;;;;;4.69;69.23;99271.03;2160975;81;21674;-74
2021/04/25 00:13:05;;;;;;;68.37;28.35;;;;;;;4.61;69.41;99269.11;2161439;82;21150;-74
2021/04/25 00:16:08;;;;;;;74.10;29.82;;;;;;;4.59;69.40;99269.61;2161391;82;21092;-74
2021/04/25 00:19:11;;;;;;;69.55;27.80;;;;;;;4.57;69.32;99268.78;2161030;82;21726;-74
2021/04/25 00:22:12;;;;;;;70.67;27.35;;;;;;;4.55;69.34;99269.30;2161090;82;21286;-74
2021/04/25 00:25:13;;;;;;;63.80;26.42;;;;;;;4.53;69.42;99266.74;2161038;82;21151;-74
2021/04/25 00:28:18;;;;;;;68.33;26.35;;;;;;;4.56;69.49;99263.21;2161168;82;21168;-74
2021/04/25 00:31:19;;;;;;;71.47;27.65;;;;;;;4.57;69.51;99259.69;2161035;82;21298;-74
2021/04/25 00:34:20;;;;;;;62.27;25.10;;;;;;;4.49;69.67;99258.62;2160991;82;21131;-74
2021/04/25 00:37:21;;;;;;;66.45;27.37;;;;;;;4.47;69.69;99257.38;2161051;82;21139;-74
2021/04/25 00:40:24;;;;;;;96.75;37.00;;;;;;;4.45;69.61;99257.02;2161016;82;21733;-74
2021/04/25 00:43:26;;;;;;;92.60;37.13;;;;;;;4.43;69.71;99260.95;2160580;82;21315;-75
2021/04/25 00:46:27;;;;;;;82.50;32.65;;;;;;;4.46;70.01;99258.27;2161011;82;21135;-75
2021/04/25 00:49:28;;;;;;;86.87;34.33;;;;;;;4.49;70.14;99256.88;2161119;82;21167;-74
2021/04/25 00:52:32;;;;;;;74.22;30.23;;;;;;;4.51;70.16;99258.12;2161139;82;21265;-75
2021/04/25 00:55:33;;;;;;;64.25;26.87;;;;;;;4.55;70.25;99258.91;2161008;82;21155;-74
2021/04/25 00:58:34;;;;;;;70.25;29.50;;;;;;;4.54;70.55;99261.95;2161054;82;21147;-75
2021/04/25 01:01:35;;;;;;;71.72;30.20;;;;;;;4.46;70.32;99258.27;2139983;82;21253;-74
2021/04/25 01:04:36;;;;;;;71.40;29.75;;;;;;;4.38;70.64;99268.48;2161330;82;21721;-74
2021/04/25 01:07:37;;;;;;;62.40;26.15;;;;;;;4.33;70.65;99259.53;2161106;82;21257;-75
2021/04/25 01:10:38;;;;;;;73.40;27.67;;;;;;;4.31;71.13;99260.87;2167843;81;21167;-74
2021/04/25 01:13:39;;;;;;;57.23;21.30;;;;;;;4.31;71.06;99264.77;2171584;82;21155;-74
2021/04/25 01:16:41;;;;;;;60.28;24.63;;;;;;;4.38;71.00;99253.73;2171270;82;21135;-74
2021/04/25 01:19:42;;;;;;;58.13;21.23;;;;;;;4.38;71.47;99251.13;2171508;82;21151;-75
2021/04/25 01:22:45;;;;;;;47.55;20.15;;;;;;;4.26;71.02;99247.15;2171098;82;21159;-75
2021/04/25 01:25:48;;;;;;;46.77;17.42;;;;;;;4.23;70.92;99244.64;2171251;82;21289;-74
2021/04/25 01:28:49;;;;;;;50.00;19.30;;;;;;;4.22;70.65;99244.23;2171155;82;21273;-74
2021/04/25 01:31:50;;;;;;;46.50;18.55;;;;;;;4.24;70.73;99247.66;2171278;82;21289;-74
2021/04/25 01:34:51;;;;;;;45.50;17.37;;;;;;;4.25;70.72;99244.60;2171113;82;21709;-74
2021/04/25 01:37:52;;;;;;;42.43;16.93;;;;;;;4.25;70.76;99240.28;2171139;82;21273;-74
2021/04/25 01:40:56;;;;;;;46.45;16.40;;;;;;;4.28;70.78;99241.91;2171403;82;21297;-74
2021/04/25 01:43:57;;;;;;;47.55;17.02;;;;;;;4.32;70.68;99230.55;2171114;82;21135;-74
2021/04/25 01:47:00;;;;;;;41.83;15.60;;;;;;;4.32;70.53;99234.02;2171601;82;21130;-74
2021/04/25 01:50:01;;;;;;;40.65;16.15;;;;;;;4.39;70.15;99231.23;2171366;82;21285;-75
2021/04/25 01:53:05;;;;;;;40.40;15.90;;;;;;;4.37;70.08;99234.30;2171228;82;21091;-75
2021/04/25 01:56:06;;;;;;;39.92;16.40;;;;;;;4.33;70.04;99221.87;2171115;82;21143;-75
2021/04/25 01:59:07;;;;;;;42.90;15.00;;;;;;;4.33;70.36;99225.30;2171125;82;21143;-75
2021/04/25 02:02:10;;;;;;;38.38;13.62;;;;;;;4.31;70.28;99229.70;2171270;82;21277;-75
2021/04/25 02:05:12;;;;;;;40.83;14.20;;;;;;;4.25;70.52;99222.10;2171096;82;21274;-75
2021/04/25 02:08:13;;;;;;;36.75;13.83;;;;;;;4.18;70.78;99224.47;2171378;82;21174;-75
2021/04/25 02:11:14;;;;;;;33.23;13.78;;;;;;;4.16;70.90;99224.94;2176818;81;21320;-75
2021/04/25 02:14:15;;;;;;;38.40;14.85;;;;;;;4.16;70.99;99221.89;2178327;81;21602;-74
2021/04/25 02:17:16;;;;;;;40.30;14.05;;;;;;;4.15;70.85;99220.21;2178424;81;21265;-75
2021/04/25 02:20:17;;;;;;;38.92;14.40;;;;;;;4.09;71.34;99215.17;2178378;81;21256;-75
2021/04/25 02:23:18;;;;;;;37.05;14.30;;;;;;;4.04;71.24;99217.48;2178338;81;21578;-74
2021/04/25 02:26:19;;;;;;;36.03;13.78;;;;;;;3.91;71.52;99204.88;2178342;81;21123;-74
2021/04/25 02:29:21;;;;;;;34.25;12.50;;;;;;;3.92;71.88;99212.20;2178574;82;21308;-75
2021/04/25 02:32:22;;;;;;;36.25;12.15;;;;;;;3.87;72.40;99205.84;2178319;81;21288;-74
2021/04/25 02:35:23;;;;;;;34.78;11.68;;;;;;;3.87;72.86;99211.49;2178399;81;21134;-74
2021/04/25 02:38:24;;;;;;;34.23;13.08;;;;;;;3.87;72.77;99215.38;2178493;81;21301;-74
2021/04/25 02:41:25;;;;;;;37.83;13.53;;;;;;;3.87;72.12;99211.49;2178371;81;21602;-75
2021/04/25 02:44:26;;;;;;;37.55;12.98;;;;;;;3.89;72.18;99222.67;2178269;81;21752;-75
2021/04/25 02:47:27;;;;;;;36.00;12.90;;;;;;;3.89;72.02;99214.42;2178396;81;21121;-74
2021/04/25 02:50:29;;;;;;;38.55;12.80;;;;;;;3.91;71.89;99224.34;2178201;82;21723;-75
2021/04/25 02:53:29;;;;;;;34.08;12.23;;;;;;;3.91;72.05;99219.14;2178452;81;21123;-74
2021/04/25 02:56:30;;;;;;;35.13;12.88;;;;;;;3.90;71.79;99222.63;2178385;81;21143;-75
2021/04/25 02:59:31;;;;;;;36.55;12.82;;;;;;;3.86;72.23;99218.41;2178490;81;21091;-75
2021/04/25 03:02:32;;;;;;;35.92;12.70;;;;;;;3.81;71.60;99221.59;2178374;81;21150;-75
2021/04/25 03:05:33;;;;;;;34.92;12.03;;;;;;;3.79;71.89;99221.63;2178340;81;21147;-75
2021/04/25 03:08:34;;;;;;;35.55;12.73;;;;;;;3.77;71.94;99223.86;2150633;82;21626;-75
2021/04/25 03:11:35;;;;;;;33.23;12.35;;;;;;;3.77;71.83;99218.21;2178256;81;21582;-74
2021/04/25 03:14:36;;;;;;;32.65;12.15;;;;;;;3.85;71.61;99219.33;2178270;81;21611;-75
2021/04/25 03:17:37;;;;;;;38.28;14.10;;;;;;;3.84;71.07;99216.31;2178334;81;21126;-74
2021/04/25 03:20:38;;;;;;;36.20;13.28;;;;;;;3.86;71.20;99217.11;2178328;81;21729;-74
2021/04/25 03:23:39;;;;;;;38.83;13.68;;;;;;;3.86;71.25;99213.22;2178314;81;21127;-74
2021/04/25 03:26:41;;;;;;;34.83;13.53;;;;;;;3.83;71.18;99210.70;2178326;82;21749;-75
2021/04/25 03:29:43;;;;;;;37.83;13.90;;;;;;;3.86;71.21;99209.78;2178528;81;21305;-75
2021/04/25 03:32:44;;;;;;;46.08;17.67;;;;;;;3.86;71.08;99204.59;2178340;81;21158;-74
2021/04/25 03:35:45;;;;;;;50.45;19.92;;;;;;;3.87;71.69;99201.95;2178425;81;21118;-74
2021/04/25 03:38:46;;;;;;;42.17;16.23;;;;;;;3.90;71.78;99201.86;2178344;81;21296;-75
2021/04/25 03:41:47;;;;;;;40.08;14.38;;;;;;;3.95;71.98;99206.92;2178296;81;21574;-74
2021/04/25 03:44:48;;;;;;;38.50;14.70;;;;;;;4.00;71.70;99205.05;2178295;81;21613;-75
2021/04/25 03:47:49;;;;;;;44.13;15.68;;;;;;;3.99;71.75;99200.33;2178324;81;21269;-75
2021/04/25 03:50:51;;;;;;;37.20;14.98;;;;;;;3.98;71.45;99208.16;2178453;81;21728;-74
2021/04/25 03:53:52;;;;;;;35.50;14.38;;;;;;;3.97;71.50;99205.15;2178314;81;21091;-74
2021/04/25 03:56:53;;;;;;;36.65;14.38;;;;;;;3.96;71.46;99204.28;2150616;82;21150;-75
2021/04/25 03:59:54;;;;;;;36.90;14.70;;;;;;;3.96;71.67;99207.33;2178312;81;21288;-74
2021/04/25 04:02:55;;;;;;;38.02;15.08;;;;;;;3.97;71.72;99209.88;2178342;81;21130;-74
2021/04/25 04:05:56;;;;;;;40.52;14.93;;;;;;;4.00;71.84;99211.55;2178392;81;21123;-74
2021/04/25 04:08:56;;;;;;;47.35;18.65;;;;;;;4.03;71.91;99210.16;2178271;81;21135;-74
2021/04/25 04:11:57;;;;;;;58.40;25.35;;;;;;;4.13;72.00;99209.00;2178272;81;21182;-74
2021/04/25 04:14:58;;;;;;;58.40;23.75;;;;;;;4.22;71.92;99209.18;2178521;81;21281;-74
2021/04/25 04:18:00;;;;;;;45.43;18.05;;;;;;;4.26;72.16;99212.55;2178349;81;21095;-74
2021/04/25 04:21:01;;;;;;;37.58;15.80;;;;;;;4.20;72.25;99217.47;2178445;81;21257;-74
2021/04/25 04:24:02;;;;;;;40.13;16.97;;;;;;;4.15;72.17;99211.55;2178630;81;21605;-74
2021/04/25 04:27:04;;;;;;;43.63;17.70;;;;;;;4.14;72.25;99212.47;2178321;81;21472;-74
2021/04/25 04:30:05;;;;;;;38.00;15.00;;;;;;;4.15;72.35;99215.02;2178293;81;21638;-75
2021/04/25 04:33:06;;;;;;;40.50;16.00;;;;;;;4.16;72.20;99217.99;2178394;81;21574;-74
2021/04/25 04:36:06;;;;;;;37.95;15.28;;;;;;;4.17;72.45;99216.27;2178450;81;21151;-74
2021/04/25 04:39:07;;;;;;;37.48;14.03;;;;;;;4.23;72.57;99217.84;2178502;81;21123;-74
2021/04/25 04:42:08;;;;;;;38.88;13.78;;;;;;;4.26;72.22;99215.15;2178487;81;21123;-74
2021/04/25 04:45:13;;;;;;;37.48;13.88;;;;;;;4.37;72.16;99216.98;2178467;81;21160;-74
2021/04/25 04:48:13;;;;;;;36.88;14.03;;;;;;;4.38;72.05;99219.12;2178332;82;21728;-74
2021/04/25 04:51:14;;;;;;;36.95;14.45;;;;;;;4.34;72.28;99218.38;2178507;81;21142;-74
2021/04/25 04:54:15;;;;;;;40.98;14.65;;;;;;;4.36;71.98;99211.38;2178453;81;21273;-75
2021/04/25 04:57:16;;;;;;;37.78;15.98;;;;;;;4.57;71.68;99222.02;2178474;81;21127;-75
2021/04/25 05:00:17;;;;;;;40.10;15.75;;;;;;;4.65;72.02;99222.19;2178428;82;21622;-74
2021/04/25 05:03:18;;;;;;;40.67;17.10;;;;;;;4.70;71.83;99224.67;2178373;81;21650;-75
2021/04/25 05:06:19;;;;;;;40.67;17.92;;;;;;;4.68;71.23;99225.15;2178581;81;21127;-75
2021/04/25 05:09:19;;;;;;;45.92;18.80;;;;;;;4.72;71.76;99222.02;2178527;81;21145;-75
2021/04/25 05:12:20;;;;;;;45.28;19.07;;;;;;;4.75;71.25;99225.36;2162581;81;21127;-75
2021/04/25 05:15:21;;;;;;;43.95;19.17;;;;;;;4.77;71.33;99222.72;2161009;82;21095;-74
2021/04/25 05:18:22;;;;;;;45.55;17.77;;;;;;;4.81;70.90;99218.70;2161053;82;21119;-74
2021/04/25 05:21:23;;;;;;;45.03;18.35;;;;;;;4.90;70.35;99220.16;2161046;82;21167;-75
2021/04/25 05:24:24;;;;;;;41.68;16.37;;;;;;;4.91;71.26;99223.59;2139949;82;21131;-75
2021/04/25 05:27:25;;;;;;;38.85;15.90;;;;;;;4.97;70.68;99220.79;2161027;82;21123;-74
2021/04/25 05:30:29;;;;;;;39.50;15.70;;;;;;;5.10;70.35;99220.82;2160967;82;21111;-74
2021/04/25 05:33:30;;;;;;;40.35;15.75;;;;;;;5.24;70.45;99220.81;2161228;82;21285;-75
2021/04/25 05:36:34;;;;;;;39.05;15.43;;;;;;;5.36;69.85;99223.02;2161135;82;21733;-75
2021/04/25 05:39:35;;;;;;;35.75;13.90;;;;;;;5.42;69.09;99215.46;2161253;82;21123;-74
2021/04/25 05:42:36;;;;;;;34.63;13.40;;;;;;;5.44;68.47;99221.45;2161355;82;21284;-75
2021/04/25 05:45:37;;;;;;;35.70;14.50;;;;;;;5.45;68.88;99212.29;2160962;82;21136;-75
2021/04/25 05:48:38;;;;;;;35.50;13.28;;;;;;;5.58;67.64;99214.02;2160983;82;21119;-74
2021/04/25 05:51:39;;;;;;;33.28;12.58;;;;;;;5.65;67.29;99215.52;2161024;82;21729;-75
2021/04/25 05:54:40;;;;;;;35.25;13.22;;;;;;;5.66;67.11;99215.05;2161081;82;21273;-74
2021/04/25 05:57:41;;;;;;;33.23;11.97;;;;;;;5.70;67.01;99218.82;2161257;82;21195;-74
2021/04/25 06:00:42;;;;;;;32.60;11.68;;;;;;;5.70;66.18;99221.42;2161016;82;21159;-75
2021/04/25 06:03:43;;;;;;;35.20;12.43;;;;;;;5.73;67.10;99225.64;2161074;82;21289;-74
2021/04/25 06:06:45;;;;;;;32.65;10.85;;;;;;;5.70;66.64;99238.34;2161336;82;21182;-74
2021/04/25 06:09:47;;;;;;;33.70;11.08;;;;;;;5.73;65.32;99229.13;2161093;82;21163;-74
2021/04/25 06:12:49;;;;;;;33.02;12.15;;;;;;;5.79;65.23;99238.90;2177713;81;21613;-74
2021/04/25 06:15:50;;;;;;;30.10;10.93;;;;;;;5.81;63.65;99231.44;2178501;81;21304;-74
2021/04/25 06:18:51;;;;;;;29.07;10.30;;;;;;;5.86;61.42;99234.75;2178592;81;21736;-74
2021/04/25 06:21:52;;;;;;;32.98;11.28;;;;;;;6.02;64.92;99232.91;2178420;81;21095;-74
2021/04/25 06:24:55;;;;;;;28.42;9.73;;;;;;;6.14;63.45;99229.04;2178375;81;21166;-74
2021/04/25 06:27:56;;;;;;;30.45;9.90;;;;;;;6.27;62.15;99230.74;2178346;81;21304;-74
2021/04/25 06:30:57;;;;;;;32.67;10.45;;;;;;;6.34;60.05;99227.00;2178461;81;21119;-73
2021/04/25 06:33:58;;;;;;;30.72;9.28;;;;;;;6.41;62.85;99228.01;2178460;81;21729;-74
2021/04/25 06:37:00;;;;;;;32.23;9.63;;;;;;;6.55;61.35;99230.53;2178640;81;21265;-74
2021/04/25 06:40:01;;;;;;;29.92;9.10;;;;;;;6.66;62.20;99227.53;2178490;81;21293;-74
2021/04/25 06:43:03;;;;;;;24.70;8.20;;;;;;;6.77;60.75;99222.76;2178373;81;21127;-75
2021/04/25 06:46:04;;;;;;;24.20;7.72;;;;;;;6.89;59.25;99224.86;2178766;81;21173;-74
2021/04/25 06:49:06;;;;;;;26.75;8.40;;;;;;;7.00;58.01;99221.01;2178356;81;21206;-74
2021/04/25 06:52:07;;;;;;;25.70;8.83;;;;;;;7.16;59.10;99215.55;2150703;82;21285;-74
2021/04/25 06:55:08;;;;;;;24.80;7.55;;;;;;;7.38;58.56;99212.05;2178352;81;21087;-74
2021/04/25 06:58:09;;;;;;;25.17;8.23;;;;;;;7.57;57.00;99216.91;2178702;81;21579;-74
2021/04/25 07:01:11;;;;;;;24.00;7.22;;;;;;;7.73;58.94;99213.61;2178442;81;21114;-74
2021/04/25 07:04:12;;;;;;;26.33;8.48;;;;;;;7.93;56.98;99214.05;2178556;81;21674;-74
2021/04/25 07:07:13;;;;;;;23.95;7.67;;;;;;;8.04;57.04;99217.05;2178364;81;21147;-73
2021/04/25 07:10:14;;;;;;;25.82;8.35;;;;;;;8.06;55.99;99212.62;2178500;81;21300;-73
2021/04/25 07:13:15;;;;;;;29.30;7.97;;;;;;;8.12;53.23;99220.17;2178580;81;21118;-73
2021/04/25 07:16:16;;;;;;;25.05;8.13;;;;;;;8.13;56.81;99216.66;2178355;81;21131;-73
2021/04/25 07:19:17;;;;;;;22.73;7.55;;;;;;;8.28;55.16;99199.89;2178300;81;21170;-73
2021/04/25 07:22:18;;;;;;;24.75;6.83;;;;;;;8.40;54.88;99201.09;2178365;81;21602;-72
2021/04/25 07:25:22;;;;;;;24.70;7.07;;;;;;;8.73;53.61;99203.92;2178680;82;21708;-73
2021/04/25 07:28:23;;;;;;;22.85;6.50;;;;;;;9.00;52.63;99208.29;2178349;81;21616;-74
2021/04/25 07:31:24;;;;;;;25.65;6.12;;;;;;;9.08;50.83;99205.77;2178610;82;21300;-73
2021/04/25 07:34:26;;;;;;;24.43;6.40;;;;;;;8.96;48.62;99210.66;2178552;82;21731;-73
2021/04/25 07:37:27;;;;;;;17.30;4.12;;;;;;;8.97;48.63;99207.61;2178336;81;21269;-75
2021/04/25 07:40:28;;;;;;;14.00;3.90;;;;;;;8.99;45.77;99214.47;2178685;81;21566;-73
2021/04/25 07:43:29;;;;;;;19.02;5.08;;;;;;;8.79;45.59;99203.65;2178288;81;21166;-74
2021/04/25 07:46:30;;;;;;;16.27;4.28;;;;;;;8.61;45.83;99209.27;2178465;81;21712;-73
2021/04/25 07:49:32;;;;;;;16.82;4.50;;;;;;;8.67;43.28;99210.28;2178274;82;21134;-74
2021/04/25 07:52:33;;;;;;;18.30;4.00;;;;;;;8.74;44.09;99204.31;2178483;81;21284;-74
2021/04/25 07:55:34;;;;;;;17.23;4.25;;;;;;;8.75;42.37;99208.63;2178308;81;21293;-74
2021/04/25 07:58:35;;;;;;;18.15;4.50;;;;;;;8.93;46.41;99217.83;2178679;81;21570;-74
2021/04/25 08:01:36;;;;;;;21.52;4.80;;;;;;;8.92;43.12;99216.98;2178345;81;21092;-75
2021/04/25 08:04:37;;;;;;;17.70;5.12;;;;;;;8.74;43.89;99221.31;2178394;81;21257;-74
2021/04/25 08:07:38;;;;;;;17.10;4.65;;;;;;;8.61;43.42;99207.13;2178446;82;21134;-75
2021/04/25 08:10:39;;;;;;;19.75;5.03;;;;;;;8.52;46.29;99214.08;2178427;81;21610;-74
2021/04/25 08:13:40;;;;;;;18.92;4.53;;;;;;;8.66;46.06;99206.44;2178479;81;21700;-74
2021/04/25 08:16:41;;;;;;;15.35;3.98;;;;;;;8.75;46.19;99204.71;2178508;81;21273;-74
2021/04/25 08:19:42;;;;;;;18.80;4.62;;;;;;;8.98;42.60;99209.31;2178520;81;21571;-74
2021/04/25 08:22:43;;;;;;;16.67;4.20;;;;;;;9.18;46.52;99200.02;2178581;82;21178;-74
2021/04/25 08:25:44;;;;;;;18.82;4.50;;;;;;;9.42;41.91;99205.41;2178566;81;21166;-74
2021/04/25 08:28:45;;;;;;;16.57;3.98;;;;;;;9.33;40.93;99206.25;2178609;81;21304;-76
2021/04/25 08:31:46;;;;;;;16.50;4.17;;;;;;;9.45;45.60;99194.78;2178636;81;21288;-75
2021/04/25 08:34:48;;;;;;;18.98;4.12;;;;;;;9.76;43.50;99192.75;2178579;81;21739;-74
2021/04/25 08:37:49;;;;;;;19.27;4.58;;;;;;;9.83;39.48;99198.53;2178596;81;21119;-74
2021/04/25 08:40:49;;;;;;;21.17;4.33;;;;;;;9.81;41.68;99201.23;2178513;81;21150;-74
2021/04/25 08:43:50;;;;;;;18.45;4.40;;;;;;;9.62;40.79;99202.63;2178433;81;21603;-74
2021/04/25 08:46:51;;;;;;;20.90;4.90;;;;;;;9.50;43.10;99202.79;2178493;81;21590;-74
2021/04/25 08:49:53;;;;;;;18.52;4.72;;;;;;;9.48;39.95;99203.78;2178459;81;21134;-73
2021/04/25 08:52:55;;;;;;;17.12;4.25;;;;;;;9.20;40.54;99202.55;2151073;82;21280;-73
2021/04/25 08:55:56;;;;;;;21.05;4.45;;;;;;;9.00;41.95;99194.38;2179199;81;21118;-75
2021/04/25 08:58:57;;;;;;;16.00;4.10;;;;;;;9.19;43.29;99192.56;2178477;81;21159;-74
2021/04/25 09:01:58;;;;;;;17.32;3.95;;;;;;;9.39;40.47;99194.63;2178828;81;21583;-75
2021/04/25 09:04:59;;;;;;;15.45;3.60;;;;;;;9.67;42.13;99179.67;2178432;81;21269;-74
2021/04/25 09:08:00;;;;;;;13.98;3.70;;;;;;;9.95;41.79;99174.77;2178455;81;21288;-73
2021/04/25 09:11:01;;;;;;;17.45;3.83;;;;;;;10.00;40.16;99174.07;2178367;81;21312;-75
2021/04/25 09:14:02;;;;;;;15.30;3.83;;;;;;;9.41;38.21;99191.48;2178783;81;21150;-74
2021/04/25 09:17:05;;;;;;;15.25;4.08;;;;;;;8.82;39.41;99183.02;2178486;81;21145;-74
2021/04/25 09:20:06;;;;;;;17.57;4.10;;;;;;;8.64;40.89;99176.91;2150848;82;21276;-74
2021/04/25 09:23:07;;;;;;;16.10;3.83;;;;;;;8.58;41.64;99174.59;2178420;81;21139;-74
2021/04/25 09:26:10;;;;;;;17.55;3.95;;;;;;;8.58;42.45;99186.36;2178713;81;21288;-74
2021/04/25 09:29:11;;;;;;;;;;;;;;;8.72;43.02;99185.69;2181030;81;21151;-74
2021/04/25 09:32:12;;;;;;;15.68;3.47;;;;;;;8.67;42.24;99185.44;2178453;82;20496;-75
2021/04/25 09:35:13;;;;;;;14.05;3.20;;;;;;;8.55;41.45;99182.55;2178540;81;21154;-74
2021/04/25 09:38:14;;;;;;;15.53;3.30;;;;;;;8.41;40.15;99197.09;2178849;81;21294;-74
2021/04/25 09:41:15;;;;;;;12.25;3.20;;;;;;;8.46;40.65;99189.06;2178675;81;21109;-74
2021/04/25 09:44:16;;;;;;;14.33;3.50;;;;;;;8.58;40.52;99183.27;2150558;82;21127;-74
2021/04/25 09:47:19;;;;;;;16.90;3.30;;;;;;;8.53;40.30;99194.39;2178416;81;21732;-75
2021/04/25 09:50:20;;;;;;;14.33;3.30;;;;;;;8.48;40.49;99184.16;2178500;81;21158;-75
2021/04/25 09:53:21;;;;;;;14.80;3.42;;;;;;;8.50;40.59;99186.70;2150515;82;21151;-74
2021/04/25 09:56:22;;;;;;;16.10;3.50;;;;;;;8.36;40.06;99185.16;2178442;81;21618;-79
2021/04/25 09:59:23;;;;;;;13.32;3.60;;;;;;;8.27;41.91;99191.19;2178521;81;21591;-74
2021/04/25 10:02:24;;;;;;;15.08;3.65;;;;;;;8.27;40.55;99195.10;2178776;81;21284;-74
2021/04/25 10:05:25;;;;;;;15.72;3.70;;;;;;;8.43;40.92;99178.28;2178342;81;21119;-75
2021/04/25 10:08:26;;;;;;;17.02;3.87;;;;;;;8.54;40.24;99181.72;2178395;81;21289;-74
2021/04/25 10:11:30;;;;;;;14.90;3.45;;;;;;;8.51;40.42;99177.11;2175356;81;21159;-74
2021/04/25 10:14:30;;;;;;;14.35;3.52;;;;;;;8.53;39.53;99173.95;2160844;82;21729;-74
2021/04/25 10:17:31;;;;;;;12.23;3.30;;;;;;;8.42;39.55;99174.41;2161022;82;21309;-74
2021/04/25 10:20:32;;;;;;;14.35;3.27;;;;;;;8.49;38.80;99178.45;2161037;82;21136;-74
2021/04/25 10:23:33;;;;;;;12.65;3.60;;;;;;;8.36;37.06;99184.72;2139957;82;21176;-78
2021/04/25 10:26:35;;;;;;;15.68;3.80;;;;;;;8.44;37.79;99176.06;2160965;82;21595;-74
2021/04/25 10:29:36;;;;;;;13.50;3.67;;;;;;;8.59;38.08;99164.50;2161047;82;21139;-77
2021/04/25 10:32:37;;;;;;;14.23;3.65;;;;;;;8.60;40.06;99163.12;2160901;82;21159;-74
2021/04/25 10:35:38;;;;;;;12.95;3.05;;;;;;;8.33;37.34;99170.02;2161338;82;21143;-75
2021/04/25 10:38:39;;;;;;;12.45;3.20;;;;;;;8.19;39.03;99182.88;2160980;82;21139;-74
2021/04/25 10:41:40;;;;;;;14.38;3.27;;;;;;;8.05;39.35;99176.95;2140005;82;21273;-74
2021/04/25 10:44:41;;;;;;;15.65;3.87;;;;;;;8.15;37.86;99181.31;2160950;82;21127;-75
2021/04/25 10:47:42;;;;;;;17.02;4.03;;;;;;;8.23;38.92;99190.09;2161208;82;21694;-74
2021/04/25 10:50:44;;;;;;;15.20;3.52;;;;;;;8.57;38.40;99189.41;2161681;82;21220;-74
2021/04/25 10:53:46;;;;;;;12.23;2.83;;;;;;;8.70;38.28;99175.30;2160933;82;21124;-75
2021/04/25 10:56:47;;;;;;;16.45;3.70;;;;;;;8.64;37.58;99177.75;2161298;82;21289;-75
2021/04/25 10:59:48;;;;;;;16.57;3.67;;;;;;;8.55;39.01;99187.34;2160945;82;21143;-75
2021/04/25 11:02:49;;;;;;;14.38;3.72;;;;;;;8.51;38.89;99184.48;2161020;82;21156;-75
2021/04/25 11:05:50;;;;;;;16.32;3.75;;;;;;;8.38;37.30;99187.25;2160959;82;21104;-74
2021/04/25 11:08:51;;;;;;;15.65;3.35;;;;;;;8.35;38.15;99190.85;2160916;82;21598;-75
2021/04/25 11:11:53;;;;;;;16.07;3.60;;;;;;;8.57;40.00;99191.19;2163052;81;21594;-75
2021/04/25 11:14:54;;;;;;;11.03;2.95;;;;;;;8.70;36.99;99183.62;2171092;82;21135;-75
2021/04/25 11:17:55;;;;;;;14.05;3.52;;;;;;;8.66;38.42;99186.82;2171185;82;21717;-75
2021/04/25 11:20:56;;;;;;;12.15;3.00;;;;;;;8.90;38.42;99194.44;2171189;82;21151;-75
2021/04/25 11:23:57;;;;;;;10.60;2.67;;;;;;;8.96;36.58;99202.81;2171172;82;21139;-76
2021/04/25 11:26:59;;;;;;;12.70;3.00;;;;;;;9.27;37.08;99191.33;2171363;82;21296;-75
2021/04/25 11:30:02;;;;;;;11.18;2.98;;;;;;;9.05;36.30;99200.68;2171015;82;21918;-75
2021/04/25 11:33:03;;;;;;;12.30;3.33;;;;;;;9.18;35.67;99200.48;2171187;82;21741;-74
2021/04/25 11:36:04;;;;;;;14.55;3.58;;;;;;;9.00;34.86;99183.43;2141478;82;21179;-74
2021/04/25 11:39:05;;;;;;;11.20;2.90;;;;;;;8.64;35.12;99191.30;2141614;82;21614;-75
2021/04/25 11:42:06;;;;;;;12.70;2.80;;;;;;;8.39;38.43;99190.23;2171061;82;21272;-74
2021/04/25 11:45:07;;;;;;;14.45;3.35;;;;;;;8.27;36.03;99202.11;2171246;82;21135;-75
2021/04/25 11:48:09;;;;;;;13.78;3.15;;;;;;;8.22;36.98;99193.18;2171608;82;21154;-75
2021/04/25 11:51:10;;;;;;;9.48;2.87;;;;;;;8.08;38.96;99216.00;2171426;82;21280;-74
2021/04/25 11:54:11;;;;;;;12.23;3.10;;;;;;;8.01;37.36;99203.29;2171239;82;21123;-75
2021/04/25 11:57:12;;;;;;;12.70;2.62;;;;;;;8.00;39.87;99197.66;2171338;82;21142;-76
2021/04/25 12:00:13;;;;;;;12.18;3.00;;;;;;;8.11;37.13;99219.77;2171272;82;21151;-74
2021/04/25 12:03:14;;;;;;;8.33;2.42;;;;;;;8.25;40.81;99193.50;2171511;82;21301;-75
2021/04/25 12:06:15;;;;;;;8.00;2.50;;;;;;;8.33;38.51;99193.98;2171256;82;21150;-75
2021/04/25 12:09:16;;;;;;;11.15;2.52;;;;;;;8.31;36.24;99192.74;2171238;82;21286;-74
2021/04/25 12:12:17;;;;;;;9.90;2.62;;;;;;;8.24;36.65;99193.11;2168559;81;21286;-75
2021/04/25 12:15:18;;;;;;;9.48;2.77;;;;;;;8.12;38.49;99187.98;2161087;82;21146;-74
2021/04/25 12:18:19;;;;;;;11.45;2.80;;;;;;;8.28;38.71;99188.97;2161122;82;21140;-75
2021/04/25 12:21:21;;;;;;;9.58;2.55;;;;;;;8.16;36.95;99196.08;2161341;82;21282;-75
2021/04/25 12:24:22;;;;;;;11.18;2.67;;;;;;;8.26;39.42;99192.56;2161018;82;21332;-77
2021/04/25 12:27:23;;;;;;;10.25;2.83;;;;;;;8.45;37.87;99210.45;2161360;82;21269;-74
2021/04/25 12:30:25;;;;;;;10.58;2.72;;;;;;;8.55;38.05;99208.70;2139903;82;21297;-75
2021/04/25 12:33:26;;;;;;;14.75;3.10;;;;;;;8.48;37.15;99205.55;2161181;82;21135;-75
2021/04/25 12:36:28;;;;;;;9.98;2.62;;;;;;;8.53;37.58;99207.94;2161086;82;21136;-75
2021/04/25 12:39:29;;;;;;;14.53;2.72;;;;;;;8.73;37.19;99209.62;2161224;82;21281;-74
2021/04/25 12:42:30;;;;;;;8.05;2.20;;;;;;;8.72;36.83;99193.53;2161045;82;21135;-75
2021/04/25 12:45:31;;;;;;;10.50;2.50;;;;;;;8.67;39.55;99198.98;2161096;82;21281;-74
2021/04/25 12:48:33;;;;;;;11.18;2.60;;;;;;;8.76;38.04;99199.01;2161149;82;21273;-75
2021/04/25 12:51:34;;;;;;;13.25;2.30;;;;;;;9.16;36.58;99199.70;2161109;82;21301;-74
2021/04/25 12:54:35;;;;;;;6.42;2.30;;;;;;;9.00;35.37;99186.05;2160994;82;21171;-75
2021/04/25 12:57:36;;;;;;;10.65;2.67;;;;;;;8.54;37.28;99177.80;2161040;82;21625;-74
2021/04/25 13:00:37;;;;;;;8.15;2.27;;;;;;;8.28;34.92;99184.21;2161410;82;21571;-75
2021/04/25 13:03:40;;;;;;;13.70;2.70;;;;;;;8.18;34.17;99199.92;2161053;82;21127;-74
2021/04/25 13:06:40;;;;;;;7.90;2.05;;;;;;;8.11;35.08;99189.73;2161396;82;21292;-75
2021/04/25 13:09:41;;;;;;;8.83;2.05;;;;;;;8.09;35.92;99186.82;2161277;82;21159;-75
2021/04/25 13:12:43;;;;;;;5.92;1.75;;;;;;;8.07;34.06;99191.25;2160980;81;21179;-75
2021/04/25 13:15:44;;;;;;;8.35;1.98;;;;;;;7.99;33.68;99190.30;2161397;82;21293;-75
2021/04/25 13:18:46;;;;;;;6.72;2.10;;;;;;;7.96;31.84;99195.20;2161106;82;21289;-74
2021/04/25 13:21:47;;;;;;;7.47;1.92;;;;;;;8.44;34.35;99184.34;2161040;82;21139;-74
2021/04/25 13:24:48;;;;;;;9.13;2.17;;;;;;;9.50;33.79;99175.30;2161365;82;21567;-74
2021/04/25 13:27:49;;;;;;;6.92;1.72;;;;;;;9.63;32.43;99179.44;2161031;82;21146;-75
2021/04/25 13:30:50;;;;;;;8.08;2.05;;;;;;;9.99;30.27;99171.89;2160989;82;21305;-75
2021/04/25 13:33:51;;;;;;;6.10;1.75;;;;;;;10.50;30.69;99186.25;2160998;82;21139;-76
2021/04/25 13:36:52;;;;;;;6.80;1.92;;;;;;;10.77;30.84;99183.48;2161037;82;21571;-75
2021/04/25 13:39:53;;;;;;;7.90;1.87;;;;;;;10.49;28.03;99167.50;2161042;82;21151;-75
2021/04/25 13:42:54;;;;;;;10.53;2.30;;;;;;;10.35;28.45;99166.94;2160990;82;21135;-75
2021/04/25 13:45:55;;;;;;;5.87;1.80;;;;;;;9.94;29.16;99159.96;2161286;82;21293;-75
2021/04/25 13:48:56;;;;;;;7.15;2.00;;;;;;;9.51;29.29;99166.97;2160965;82;21143;-74
2021/04/25 13:51:57;;;;;;;6.50;1.85;;;;;;;8.94;30.73;99187.66;2161233;82;21705;-75
2021/04/25 13:54:58;;;;;;;6.72;1.62;;;;;;;8.63;31.18;99173.45;2160961;82;21147;-74
2021/04/25 13:57:59;;;;;;;5.08;1.77;;;;;;;8.60;31.26;99172.27;2160980;82;21146;-74
2021/04/25 14:01:00;;;;;;;5.78;1.72;;;;;;;8.58;29.33;99171.98;2161123;82;21127;-75
2021/04/25 14:04:01;;;;;;;6.47;2.05;;;;;;;8.55;30.34;99161.20;2161103;82;21134;-75
2021/04/25 14:07:02;;;;;;;7.15;1.92;;;;;;;8.72;28.88;99164.33;2160997;82;21140;-74
2021/04/25 14:10:03;;;;;;;8.60;2.17;;;;;;;8.61;30.07;99160.90;2160953;82;21793;-74